Time;durP1;ratioP1;P1;durP2;ratioP2;P2;SDS_P1;SDS_P2;PMS_P1;PMS_P2;Temp;Humidity;BMP_temperature;BMP_pressure;BME280_temperature;BME280_humidity;BME280_pressure;Samples;Min_cycle;Max_cycle;Signal;HPM_P1;HPM_P2
2022/04/19 00:00:13;;;;;;;7.67;2.77;;;;;;;6.34;56.18;102230.88;5072275;28;20077;-67
2022/04/19 00:02:47;;;;;;;3.77;2.67;;;;;;;6.27;56.47;102224.28;5059378;28;20063;-72
2022/04/19 00:05:16;;;;;;;4.65;2.28;;;;;;;6.31;56.68;102225.78;5075659;28;20146;-68
2022/04/19 00:07:42;;;;;;;6.15;2.25;;;;;;;6.24;56.42;102219.22;5075425;28;20036;-66
2022/04/19 00:10:08;;;;;;;6.80;2.80;;;;;;;6.29;56.32;102226.84;5076181;28;20048;-68
2022/04/19 00:12:34;;;;;;;5.83;2.73;;;;;;;6.21;56.45;102219.41;5080899;28;20043;-65
2022/04/19 00:15:00;;;;;;;4.67;3.03;;;;;;;6.26;56.51;102222.59;5076324;28;20123;-68
2022/04/19 00:17:26;;;;;;;5.17;2.43;;;;;;;6.27;56.90;102229.59;5076156;28;20028;-65
2022/04/19 00:19:51;;;;;;;6.70;2.67;;;;;;;6.28;56.71;102219.84;5075776;28;20064;-67
2022/04/19 00:22:19;;;;;;;3.83;2.57;;;;;;;6.33;56.42;102221.25;5075465;28;20036;-66
2022/04/19 00:24:45;;;;;;;7.03;3.03;;;;;;;6.37;56.58;102238.66;5075862;28;20040;-70
2022/04/19 00:27:10;;;;;;;4.83;2.30;;;;;;;6.41;56.47;102232.22;5073889;28;20029;-66
2022/04/19 00:29:37;;;;;;;3.70;2.60;;;;;;;6.44;56.99;102234.66;5075405;28;20127;-69
2022/04/19 00:32:03;;;;;;;4.00;2.40;;;;;;;6.41;56.37;102237.50;5075306;28;20086;-66
2022/04/19 00:34:29;;;;;;;3.90;2.17;;;;;;;6.36;56.48;102233.44;5075480;28;20032;-65
2022/04/19 00:36:54;;;;;;;3.33;2.30;;;;;;;6.36;56.71;102233.44;5075421;28;20041;-67
2022/04/19 00:39:20;;;;;;;2.90;2.50;;;;;;;6.36;56.79;102234.31;5075193;28;20060;-69
2022/04/19 00:41:47;;;;;;;5.27;2.37;;;;;;;6.35;57.24;102235.22;5073992;28;20047;-69
2022/04/19 00:44:12;;;;;;;4.23;2.10;;;;;;;6.28;56.65;102228.63;5075303;28;20064;-66
2022/04/19 00:46:38;;;;;;;4.37;3.07;;;;;;;6.25;57.15;102242.06;5074995;28;20479;-66
2022/04/19 00:49:03;;;;;;;4.37;2.17;;;;;;;6.27;56.96;102242.81;5075113;28;20043;-67
2022/04/19 00:51:29;;;;;;;6.07;2.70;;;;;;;6.18;57.53;102240.78;5074883;28;20045;-67
2022/04/19 00:53:55;;;;;;;10.33;3.93;;;;;;;6.15;58.28;102235.69;5074797;28;20041;-66
2022/04/19 00:56:21;;;;;;;3.27;2.80;;;;;;;6.16;57.64;102243.53;5074510;28;20454;-66
2022/04/19 00:58:48;;;;;;;4.27;2.77;;;;;;;6.16;57.93;102237.38;5074877;28;20049;-68
2022/04/19 01:01:14;;;;;;;3.27;2.10;;;;;;;6.12;58.60;102244.66;5074880;28;20032;-67
2022/04/19 01:03:41;;;;;;;5.20;2.57;;;;;;;6.09;58.13;102244.00;5074860;28;20033;-68
2022/04/19 01:06:06;;;;;;;4.40;2.60;;;;;;;5.98;58.51;102233.25;5074732;28;20040;-69
2022/04/19 01:08:32;;;;;;;4.33;2.63;;;;;;;5.94;58.99;102237.88;5073448;28;20372;-66
2022/04/19 01:13:42;;;;;;;8.07;3.17;;;;;;;5.87;59.36;102237.41;5074750;28;20040;-68
2022/04/19 01:16:08;;;;;;;5.47;3.40;;;;;;;5.81;60.25;102226.34;5074721;28;20028;-67
2022/04/19 01:18:35;;;;;;;4.97;3.33;;;;;;;5.80;59.75;102230.81;5074839;28;20105;-68
2022/04/19 01:21:01;;;;;;;7.30;3.77;;;;;;;5.78;60.24;102231.81;5074395;28;20040;-65
2022/04/19 01:23:28;;;;;;;6.93;3.23;;;;;;;5.70;59.72;102224.38;5074145;28;20044;-68
2022/04/19 01:25:54;;;;;;;5.23;3.27;;;;;;;5.73;60.21;102237.38;5074398;28;20060;-67
2022/04/19 01:28:20;;;;;;;3.87;2.80;;;;;;;5.69;60.09;102235.88;5074385;28;20060;-66
2022/04/19 01:30:52;;;;;;;4.30;2.67;;;;;;;5.69;60.88;102243.81;5074152;28;20086;-65
2022/04/19 01:33:18;;;;;;;5.37;2.80;;;;;;;5.72;60.09;102233.06;5074222;28;20032;-69
2022/04/19 01:35:44;;;;;;;7.97;2.40;;;;;;;5.77;60.01;102244.19;5074136;28;20036;-66
2022/04/19 01:38:09;;;;;;;5.40;2.47;;;;;;;5.78;60.63;102242.38;5072807;28;20040;-65
2022/04/19 01:40:35;;;;;;;3.93;2.80;;;;;;;5.74;60.29;102243.53;5073387;28;20048;-70
2022/04/19 01:43:03;;;;;;;3.97;2.60;;;;;;;5.83;61.08;102241.19;5073753;28;20548;-68
2022/04/19 01:45:31;;;;;;;3.70;2.30;;;;;;;5.85;60.48;102241.09;5073505;28;20492;-68
2022/04/19 01:47:57;;;;;;;3.93;2.47;;;;;;;5.82;59.66;102228.91;5073790;28;20047;-65
2022/04/19 01:50:26;;;;;;;3.13;2.33;;;;;;;5.93;60.30;102240.63;5072169;28;20032;-68
2022/04/19 01:52:53;;;;;;;9.27;2.33;;;;;;;6.01;59.89;102248.91;5071215;28;20119;-68
2022/04/19 01:55:20;;;;;;;3.20;1.90;;;;;;;5.89;59.84;102232.88;5073401;28;20028;-67
2022/04/19 01:57:51;;;;;;;2.57;2.03;;;;;;;5.90;59.86;102241.66;5072277;28;20407;-69
2022/04/19 02:00:42;;;;;;;5.00;2.07;;;;;;;5.98;59.71;102243.81;5073367;28;20121;-67
2022/04/19 02:03:08;;;;;;;4.07;1.90;;;;;;;6.03;59.42;102247.88;5073476;28;20446;-70
2022/04/19 02:05:33;;;;;;;3.37;2.20;;;;;;;6.01;59.74;102244.47;5072206;28;20036;-69
2022/04/19 02:07:59;;;;;;;3.27;2.40;;;;;;;6.05;60.09;102250.41;5073233;28;20045;-67
2022/04/19 02:10:24;;;;;;;3.97;2.23;;;;;;;6.10;59.22;102245.72;5073165;28;20059;-69
2022/04/19 02:12:51;;;;;;;2.93;1.70;;;;;;;6.12;58.89;102249.94;5073057;28;20116;-67
2022/04/19 02:15:18;;;;;;;8.50;1.80;;;;;;;6.13;59.96;102250.81;5071374;28;20029;-68
2022/04/19 02:17:45;;;;;;;5.83;2.33;;;;;;;6.10;59.15;102243.91;5073094;28;20064;-70
2022/04/19 02:20:13;;;;;;;3.73;1.60;;;;;;;6.17;58.99;102244.38;5072610;28;20107;-68
2022/04/19 02:22:39;;;;;;;2.83;2.17;;;;;;;6.15;58.65;102251.56;5072192;28;20052;-66
2022/04/19 02:25:06;;;;;;;5.57;2.23;;;;;;;6.17;58.74;102261.09;5071462;28;20086;-66
2022/04/19 02:27:33;;;;;;;2.60;2.03;;;;;;;6.25;58.50;102254.44;5071624;28;20029;-69
2022/04/19 02:30:04;;;;;;;3.20;2.30;;;;;;;6.33;58.79;102260.94;5070923;28;20115;-69
2022/04/19 02:32:30;;;;;;;5.07;2.00;;;;;;;6.40;57.96;102256.97;5072704;28;20029;-67
2022/04/19 02:34:57;;;;;;;2.97;1.60;;;;;;;6.36;58.25;102249.31;5072533;28;20036;-67
2022/04/19 02:37:22;;;;;;;2.50;2.00;;;;;;;6.40;57.74;102256.13;5071720;28;20044;-67
2022/04/19 02:39:49;;;;;;;2.93;2.17;;;;;;;6.37;57.89;102259.81;5072787;28;20039;-68
2022/04/19 02:42:16;;;;;;;7.23;1.60;;;;;;;6.48;58.06;102256.47;5072799;28;20068;-68
2022/04/19 02:44:42;;;;;;;3.03;1.27;;;;;;;6.49;57.38;102261.66;5072687;28;20043;-66
2022/04/19 02:47:07;;;;;;;2.17;1.40;;;;;;;6.60;57.13;102263.59;5072647;28;20474;-68
2022/04/19 02:49:33;;;;;;;7.37;1.70;;;;;;;6.64;56.82;102264.25;5071762;28;20086;-68
2022/04/19 02:51:59;;;;;;;1.90;1.57;;;;;;;6.67;56.79;102258.78;5072552;28;20072;-67
2022/04/19 02:54:25;;;;;;;4.63;2.00;;;;;;;6.68;57.09;102260.47;5072385;28;20132;-65
2022/04/19 02:56:51;;;;;;;3.33;1.97;;;;;;;6.70;56.94;102253.28;5072427;28;20089;-69
2022/04/19 02:59:17;;;;;;;3.57;1.70;;;;;;;6.72;57.13;102267.25;5072438;28;20090;-64
2022/04/19 03:01:46;;;;;;;4.47;1.90;;;;;;;6.72;56.99;102267.25;5072236;28;20521;-70
2022/04/19 03:04:12;;;;;;;4.70;1.83;;;;;;;6.67;56.85;102264.91;5071328;28;20036;-69
2022/04/19 03:06:37;;;;;;;2.93;1.80;;;;;;;6.61;56.44;102269.75;5072584;28;20404;-65
2022/04/19 03:09:03;;;;;;;2.87;1.80;;;;;;;6.57;57.09;102268.25;5072367;28;20453;-66
2022/04/19 03:11:28;;;;;;;3.53;2.37;;;;;;;6.65;57.42;102269.47;5077400;28;20029;-68
2022/04/19 03:13:55;;;;;;;3.07;1.33;;;;;;;6.70;56.53;102279.75;5071256;28;21085;-67
2022/04/19 03:16:21;;;;;;;1.87;1.43;;;;;;;6.62;56.68;102267.00;5072467;28;20035;-70
2022/04/19 03:18:50;;;;;;;2.60;1.77;;;;;;;6.56;57.09;102266.56;5072701;28;20052;-67
2022/04/19 03:21:16;;;;;;;2.90;1.70;;;;;;;6.49;56.99;102280.19;5072289;28;20048;-67
2022/04/19 03:29:11;;;;;;;4.13;1.27;;;;;;;6.56;57.26;102277.97;5072180;28;20072;-66
2022/04/19 03:31:38;;;;;;;2.83;1.50;;;;;;;6.62;56.96;102287.31;5072076;28;20127;-67
2022/04/19 03:34:05;;;;;;;3.03;1.70;;;;;;;6.64;57.12;102282.78;5071612;28;20043;-66
2022/04/19 03:36:32;;;;;;;4.60;2.00;;;;;;;6.64;57.62;102290.72;5072590;28;20028;-67
2022/04/19 03:38:58;;;;;;;7.60;1.80;;;;;;;6.56;57.66;102280.63;5072322;28;20047;-70
2022/04/19 03:41:24;;;;;;;2.43;1.57;;;;;;;6.51;57.63;102285.38;5054115;28;20407;-69
2022/04/19 03:43:51;;;;;;;2.27;2.00;;;;;;;6.54;57.29;102301.06;5072066;28;20040;-69
2022/04/19 03:46:17;;;;;;;2.43;1.60;;;;;;;6.53;57.29;102297.56;5071998;28;20032;-67
2022/04/19 03:48:43;;;;;;;3.33;1.70;;;;;;;6.46;57.00;102290.97;5071874;28;20131;-66
2022/04/19 03:51:09;;;;;;;6.67;2.00;;;;;;;6.54;56.88;102293.13;5070450;28;20128;-69
2022/04/19 03:53:34;;;;;;;1.97;1.77;;;;;;;6.57;56.84;102300.84;5071919;28;20028;-69
2022/04/19 03:56:00;;;;;;;3.50;2.00;;;;;;;6.63;56.99;102304.91;5072880;28;20123;-70
2022/04/19 03:58:27;;;;;;;4.23;2.17;;;;;;;6.58;56.94;102299.06;5070821;28;20123;-70
2022/04/19 04:00:55;;;;;;;2.80;1.70;;;;;;;6.56;56.63;102290.38;5071473;28;20122;-67
2022/04/19 04:03:21;;;;;;;3.15;1.58;;;;;;;6.66;57.85;102316.16;5070275;28;20071;-70
2022/04/19 04:05:47;;;;;;;4.77;2.03;;;;;;;6.62;57.00;102297.91;5068576;28;20060;-68
2022/04/19 04:08:13;;;;;;;3.17;1.80;;;;;;;6.70;56.58;102312.38;5068493;28;20040;-68
2022/04/19 04:10:39;;;;;;;4.60;2.27;;;;;;;6.74;56.32;102310.38;5070212;28;20492;-67
2022/04/19 04:13:04;;;;;;;3.37;2.10;;;;;;;6.74;56.96;102323.59;5070030;28;20048;-70
2022/04/19 04:15:31;;;;;;;4.33;1.97;;;;;;;6.83;56.79;102321.19;5069539;28;20039;-68
2022/04/19 04:17:56;;;;;;;9.40;1.77;;;;;;;6.83;56.06;102304.47;5071418;28;20043;-67
2022/04/19 04:20:23;;;;;;;9.03;2.40;;;;;;;6.92;55.79;102322.38;5071527;28;20496;-70
2022/04/19 04:22:49;;;;;;;5.87;1.40;;;;;;;6.75;56.55;102296.19;5071362;28;20048;-68
2022/04/19 04:25:14;;;;;;;17.43;2.30;;;;;;;6.89;55.80;102314.63;5071622;28;20384;-70
2022/04/19 04:27:40;;;;;;;7.73;1.90;;;;;;;6.96;55.70;102315.97;5071994;28;20071;-68
2022/04/19 04:30:06;;;;;;;4.10;2.00;;;;;;;6.97;55.77;102315.00;5071139;28;20040;-69
2022/04/19 04:32:32;;;;;;;7.40;1.90;;;;;;;7.05;55.26;102327.75;5071508;28;20036;-67
2022/04/19 04:34:58;;;;;;;25.53;2.40;;;;;;;7.05;55.81;102333.03;5071909;28;20028;-68
2022/04/19 04:37:24;;;;;;;7.80;2.13;;;;;;;7.12;55.60;102331.66;5070119;28;20109;-67
2022/04/19 04:39:50;;;;;;;10.17;2.50;;;;;;;7.27;55.29;102321.88;5069370;28;20033;-69
2022/04/19 04:42:16;;;;;;;3.87;2.37;;;;;;;7.25;54.77;102326.41;5071420;28;20042;-67
2022/04/19 04:44:42;;;;;;;3.70;2.60;;;;;;;7.03;55.49;102290.75;5071019;28;20044;-69
2022/04/19 04:49:54;;;;;;;9.00;3.43;;;;;;;7.46;55.42;102319.66;5075669;28;20438;-67
2022/04/19 04:52:26;;;;;;;15.80;3.83;;;;;;;7.66;54.60;102342.16;5074103;28;20093;-71
2022/04/19 04:54:52;;;;;;;22.07;4.23;;;;;;;7.76;54.96;102335.25;5073273;28;20043;-67
2022/04/19 04:57:19;;;;;;;12.27;3.77;;;;;;;7.89;54.01;102343.22;5073389;28;20036;-67
2022/04/19 04:59:48;;;;;;;11.50;3.10;;;;;;;8.02;53.74;102331.63;5073200;28;20071;-68
2022/04/19 05:02:14;;;;;;;14.37;2.70;;;;;;;8.11;53.31;102338.13;5074627;28;20028;-71
2022/04/19 05:04:42;;;;;;;4.50;3.13;;;;;;;7.97;52.82;102320.50;5075220;28;20533;-67
2022/04/19 05:07:15;;;;;;;14.32;3.75;;;;;;;7.98;52.97;102339.94;5074620;28;20032;-67
2022/04/19 05:09:43;;;;;;;14.37;3.20;;;;;;;7.98;53.18;102348.72;5074438;28;20055;-68
2022/04/19 05:12:14;;;;;;;17.42;4.28;;;;;;;7.92;53.55;102335.06;5073847;28;20033;-71
2022/04/19 05:14:49;;;;;;;25.10;4.80;;;;;;;7.91;53.88;102344.81;5074385;28;20036;-67
2022/04/19 05:17:17;;;;;;;8.83;3.43;;;;;;;7.87;54.53;102346.00;5072842;28;20118;-67
2022/04/19 05:19:44;;;;;;;8.05;3.15;;;;;;;7.85;53.89;102355.00;5074768;28;20144;-68
2022/04/19 05:22:12;;;;;;;6.60;2.80;;;;;;;7.84;54.20;102355.97;5074679;28;20108;-69
2022/04/19 05:24:37;;;;;;;8.10;3.20;;;;;;;7.75;53.58;102337.06;5073876;28;20499;-68
2022/04/19 05:27:06;;;;;;;16.90;3.10;;;;;;;7.93;53.60;102353.53;5074306;28;20041;-67
2022/04/19 05:29:34;;;;;;;20.48;2.97;;;;;;;8.08;53.48;102357.72;5074349;28;20036;-69
2022/04/19 05:32:00;;;;;;;11.52;2.72;;;;;;;8.01;53.06;102350.31;5072811;28;20048;-70
2022/04/19 05:34:25;;;;;;;7.33;2.40;;;;;;;8.10;53.25;102364.78;5075240;28;20404;-69
2022/04/19 05:36:51;;;;;;;7.73;2.27;;;;;;;8.10;53.10;102362.97;5074101;28;20024;-72
2022/04/19 05:39:16;;;;;;;8.43;2.33;;;;;;;8.21;53.19;102364.84;5073381;28;20036;-68
2022/04/19 05:41:42;;;;;;;8.17;2.70;;;;;;;8.38;52.09;102370.72;5072452;28;20140;-66
2022/04/19 05:44:08;;;;;;;13.60;4.10;;;;;;;8.49;51.68;102369.94;5072647;28;20036;-67
2022/04/19 05:46:36;;;;;;;19.20;3.27;;;;;;;8.56;51.95;102373.00;5072762;28;20089;-70
2022/04/19 05:49:04;;;;;;;14.73;3.07;;;;;;;8.58;50.95;102369.25;5073592;28;20051;-71
2022/04/19 05:51:30;;;;;;;11.23;2.85;;;;;;;8.62;50.80;102353.94;5073976;28;20499;-69
2022/04/19 05:53:56;;;;;;;7.07;2.47;;;;;;;8.80;50.97;102357.94;5073647;28;20040;-67
2022/04/19 05:56:21;;;;;;;12.87;3.80;;;;;;;9.06;49.58;102365.81;5073227;28;20032;-67
2022/04/19 05:58:47;;;;;;;31.10;5.67;;;;;;;9.17;49.40;102364.03;5070529;28;20028;-73
2022/04/19 06:01:12;;;;;;;13.30;2.83;;;;;;;9.20;48.91;102357.63;5074126;28;20063;-74
2022/04/19 06:06:22;;;;;;;8.17;3.07;;;;;;;9.50;48.20;102365.97;5073828;28;20040;-72
2022/04/19 06:08:49;;;;;;;19.73;3.80;;;;;;;9.65;47.76;102357.78;5071868;28;20438;-66
2022/04/19 06:11:15;;;;;;;11.00;2.90;;;;;;;9.88;47.60;102365.69;5073088;28;20048;-69
2022/04/19 06:13:41;;;;;;;10.37;2.57;;;;;;;9.93;46.98;102375.97;5072261;28;20061;-67
2022/04/19 06:16:06;;;;;;;9.83;2.37;;;;;;;9.97;46.69;102364.13;5073293;28;20032;-67
2022/04/19 06:18:33;;;;;;;7.37;2.63;;;;;;;9.90;47.02;102360.25;5073089;28;20068;-68
2022/04/19 06:21:00;;;;;;;7.30;3.00;;;;;;;9.77;47.11;102348.84;5073337;28;20044;-67
2022/04/19 06:23:26;;;;;;;6.23;3.00;;;;;;;9.81;46.86;102359.13;5073048;28;20044;-64
2022/04/19 06:25:52;;;;;;;8.33;2.30;;;;;;;9.83;47.01;102367.00;5073295;28;20505;-65
2022/04/19 06:28:17;;;;;;;5.13;2.27;;;;;;;9.79;46.52;102365.53;5073069;28;20119;-69
2022/04/19 06:30:43;;;;;;;9.93;2.03;;;;;;;9.84;46.71;102353.59;5076856;28;20040;-70
2022/04/19 06:33:09;;;;;;;7.00;2.17;;;;;;;9.92;45.92;102361.81;5074483;28;20064;-70
2022/04/19 06:35:34;;;;;;;5.90;2.73;;;;;;;9.89;46.63;102355.91;5073893;28;20063;-65
2022/04/19 06:38:00;;;;;;;10.07;2.67;;;;;;;9.87;47.15;102368.47;5073075;28;20035;-66
2022/04/19 06:40:25;;;;;;;9.07;2.73;;;;;;;10.06;46.43;102362.56;5072932;28;20040;-67
2022/04/19 06:42:51;;;;;;;6.00;2.93;;;;;;;10.12;46.07;102362.94;5072702;28;20032;-69
2022/04/19 06:45:17;;;;;;;3.43;1.80;;;;;;;10.09;45.72;102368.47;5072626;28;20040;-68
2022/04/19 06:47:44;;;;;;;9.33;2.30;;;;;;;10.27;46.12;102382.19;5072550;28;20074;-69
2022/04/19 06:50:11;;;;;;;8.33;1.83;;;;;;;10.47;45.17;102372.63;5072748;28;20064;-65
2022/04/19 06:52:36;;;;;;;39.20;5.10;;;;;;;10.54;44.68;102381.81;5072359;28;20052;-64
2022/04/19 06:55:03;;;;;;;7.90;2.23;;;;;;;10.42;45.15;102385.47;5072152;28;20462;-66
2022/04/19 06:57:29;;;;;;;5.83;2.40;;;;;;;10.53;45.22;102382.78;5072566;28;20143;-64
2022/04/19 06:59:55;;;;;;;8.17;1.90;;;;;;;10.41;45.31;102384.63;5072465;28;20547;-64
2022/04/19 07:02:20;;;;;;;4.63;3.23;;;;;;;10.42;45.16;102381.00;5072296;28;20400;-68
2022/04/19 07:04:46;;;;;;;4.80;1.70;;;;;;;10.53;45.12;102388.13;5072766;28;20126;-71
2022/04/19 07:07:12;;;;;;;10.53;2.57;;;;;;;10.74;44.32;102381.06;5072294;28;20488;-71
2022/04/19 07:09:38;;;;;;;5.07;1.97;;;;;;;10.74;44.27;102381.06;5072194;28;20037;-70
2022/04/19 07:12:04;;;;;;;3.17;2.63;;;;;;;10.60;44.71;102383.16;5071104;28;20032;-71
2022/04/19 07:14:30;;;;;;;12.10;2.13;;;;;;;10.55;44.82;102391.50;5072328;28;20407;-68
2022/04/19 07:16:58;;;;;;;22.63;3.40;;;;;;;10.71;44.64;102397.31;5072129;28;20089;-66
2022/04/19 07:19:24;;;;;;;7.10;1.83;;;;;;;10.88;44.12;102398.59;5072386;28;20060;-65
2022/04/19 07:27:23;;;;;;;7.53;1.67;;;;;;;11.00;43.87;102394.09;5071959;28;20036;-62
2022/04/19 07:29:49;;;;;;;9.95;2.10;;;;;;;10.94;44.04;102392.75;5071943;28;20119;-62
2022/04/19 07:32:15;;;;;;;6.20;2.00;;;;;;;10.95;43.98;102398.94;5071683;28;20143;-62
2022/04/19 07:34:41;;;;;;;5.97;2.40;;;;;;;10.90;44.01;102387.81;5071996;28;20385;-64
2022/04/19 07:37:06;;;;;;;6.77;2.30;;;;;;;11.08;43.79;102388.97;5071950;28;20032;-60
2022/04/19 07:39:32;;;;;;;1.90;1.70;;;;;;;11.22;43.58;102385.16;5071887;28;20040;-62
2022/04/19 07:42:00;;;;;;;4.23;2.10;;;;;;;11.09;43.39;102394.19;5071882;28;20032;-68
2022/04/19 07:44:28;;;;;;;6.00;2.03;;;;;;;11.16;43.49;102403.38;5071820;28;20040;-65
2022/04/19 07:46:54;;;;;;;4.47;1.42;;;;;;;11.15;43.53;102391.00;5054219;28;20501;-70
2022/04/19 07:49:19;;;;;;;9.43;2.33;;;;;;;11.18;43.33;102396.09;5071846;28;20036;-62
2022/04/19 07:51:46;;;;;;;7.50;2.23;;;;;;;11.34;43.19;102387.66;5071276;28;20048;-61
2022/04/19 07:54:11;;;;;;;10.30;2.57;;;;;;;11.32;43.24;102396.78;5071632;28;20091;-60
2022/04/19 07:56:37;;;;;;;3.60;2.00;;;;;;;11.45;43.05;102395.59;5071282;28;20036;-61
2022/04/19 07:59:03;;;;;;;7.17;2.30;;;;;;;11.64;42.97;102396.75;5071383;28;20044;-63
2022/04/19 08:01:31;;;;;;;4.50;2.10;;;;;;;11.76;42.58;102398.34;5070245;28;20036;-64
2022/04/19 08:03:56;;;;;;;14.70;1.83;;;;;;;11.99;42.20;102401.78;5071935;28;20035;-68
2022/04/19 08:06:22;;;;;;;1.67;1.50;;;;;;;11.94;41.98;102393.31;5072250;28;20041;-62
2022/04/19 08:08:48;;;;;;;3.77;1.60;;;;;;;12.05;41.77;102396.75;5071483;28;20064;-62
2022/04/19 08:11:13;;;;;;;4.87;1.73;;;;;;;11.83;41.89;102394.22;5071560;28;20483;-63
2022/04/19 08:13:39;;;;;;;3.63;1.73;;;;;;;11.58;42.19;102397.25;5071532;28;20509;-63
2022/04/19 08:16:05;;;;;;;2.63;1.60;;;;;;;11.53;42.89;102391.44;5071389;28;20040;-67
2022/04/19 08:18:32;;;;;;;2.00;1.90;;;;;;;11.59;42.42;102391.81;5071278;28;20392;-64
2022/04/19 08:20:57;;;;;;;1.90;1.43;;;;;;;11.58;42.44;102394.59;5073262;28;20037;-64
2022/04/19 08:23:23;;;;;;;4.20;1.60;;;;;;;11.37;42.56;102379.41;5075218;28;20044;-63
2022/04/19 08:25:49;;;;;;;3.87;1.67;;;;;;;11.49;42.75;102389.03;5075186;28;20036;-67
2022/04/19 08:28:14;;;;;;;3.63;1.50;;;;;;;11.65;42.40;102393.09;5075380;28;20035;-68
2022/04/19 08:30:40;;;;;;;3.43;1.87;;;;;;;11.68;42.49;102392.84;5075247;28;20044;-71
2022/04/19 08:33:05;;;;;;;3.50;2.30;;;;;;;11.55;42.51;102397.50;5075346;28;20040;-70
2022/04/19 08:35:31;;;;;;;4.60;1.63;;;;;;;11.42;42.91;102392.34;5075344;28;20483;-68
2022/04/19 08:37:56;;;;;;;3.60;2.30;;;;;;;11.53;42.41;102388.78;5075150;28;20557;-71
2022/04/19 08:40:25;;;;;;;4.10;1.83;;;;;;;11.58;42.59;102383.94;5073815;28;20044;-66
2022/04/19 08:42:50;;;;;;;3.17;2.83;;;;;;;11.73;42.05;102391.47;5075075;28;20064;-71
2022/04/19 08:45:16;;;;;;;3.87;2.20;;;;;;;11.86;42.44;102385.97;5075062;28;20551;-71
2022/04/19 08:47:46;;;;;;;4.10;2.97;;;;;;;11.85;42.10;102388.75;5074938;28;20042;-65
2022/04/19 08:50:14;;;;;;;4.57;2.07;;;;;;;12.00;41.52;102385.63;5075075;28;20484;-71
2022/04/19 08:52:40;;;;;;;11.53;2.17;;;;;;;11.80;41.71;102343.75;5075551;28;20033;-69
2022/04/19 08:57:52;;;;;;;4.30;2.37;;;;;;;12.03;41.17;102381.84;5074966;28;20131;-73
2022/04/19 09:00:22;;;;;;;3.80;1.77;;;;;;;12.19;41.25;102386.69;5074720;28;20516;-67
2022/04/19 09:02:49;;;;;;;9.13;2.27;;;;;;;12.09;41.37;102387.47;5075027;28;20036;-68
2022/04/19 09:05:21;;;;;;;2.47;1.50;;;;;;;11.69;41.95;102394.53;5074982;28;20048;-69
2022/04/19 09:07:51;;;;;;;11.33;1.70;;;;;;;11.51;42.30;102396.91;5074993;28;20531;-66
2022/04/19 09:10:27;;;;;;;4.27;1.63;;;;;;;11.34;42.41;102384.16;5074369;28;20392;-67
2022/04/19 09:13:02;;;;;;;5.00;1.43;;;;;;;11.49;42.83;102383.69;5074666;28;20032;-70
2022/04/19 09:15:34;;;;;;;9.53;1.70;;;;;;;11.49;42.38;102364.19;5074649;28;20033;-67
2022/04/19 09:18:00;;;;;;;8.73;2.23;;;;;;;11.53;42.39;102383.44;5074368;28;20085;-68
2022/04/19 09:20:27;;;;;;;4.60;1.50;;;;;;;11.39;42.10;102372.13;5073950;28;20539;-66
2022/04/19 09:23:05;;;;;;;16.87;2.73;;;;;;;11.26;42.37;102382.09;5074408;28;20047;-74
2022/04/19 09:25:32;;;;;;;10.67;2.37;;;;;;;11.03;43.37;102376.03;5074472;28;20039;-69
2022/04/19 09:27:59;;;;;;;8.03;1.77;;;;;;;10.78;43.56;102381.66;5074270;28;20047;-64
2022/04/19 09:30:26;;;;;;;3.50;1.50;;;;;;;10.59;43.87;102382.28;5074163;28;20131;-66
2022/04/19 09:33:11;;;;;;;14.17;1.90;;;;;;;10.39;44.68;102381.22;5072739;28;20037;-69
2022/04/19 09:35:43;;;;;;;3.50;1.70;;;;;;;10.31;44.82;102366.81;5074412;28;20494;-66
2022/04/19 09:38:09;;;;;;;7.13;1.27;;;;;;;10.21;44.48;102378.22;5074601;28;20064;-69
2022/04/19 09:40:51;;;;;;;5.23;1.03;;;;;;;10.04;45.26;102373.31;5073096;28;20558;-82
2022/04/19 09:43:23;;;;;;;6.50;1.60;;;;;;;10.05;45.84;102376.81;5074691;28;20456;-68
2022/04/19 09:45:52;;;;;;;5.60;1.53;;;;;;;10.23;45.08;102376.28;5074262;28;20036;-73
2022/04/19 09:48:19;;;;;;;3.28;0.93;;;;;;;10.44;44.83;102383.53;5074108;28;20036;-73
2022/04/19 09:51:02;;;;;;;2.77;0.93;;;;;;;10.43;44.34;102379.19;5074281;28;20048;-72
2022/04/19 09:53:30;;;;;;;3.03;1.07;;;;;;;10.39;44.47;102378.56;5073909;28;20332;-67
2022/04/19 09:55:58;;;;;;;3.13;1.10;;;;;;;10.41;44.11;102370.47;5073859;28;20033;-66
2022/04/19 09:58:24;;;;;;;1.77;1.20;;;;;;;10.50;44.12;102375.06;5073788;28;20146;-68
2022/04/19 10:00:50;;;;;;;15.00;2.67;;;;;;;10.52;43.97;102379.28;5073128;28;20039;-65
2022/04/19 10:08:58;;;;;;;2.67;1.37;;;;;;;10.45;44.22;102380.75;5059610;28;20051;-66
2022/04/19 10:11:25;;;;;;;;;;;;;;;10.55;44.32;102376.38;5075190;28;20510;-71
2022/04/19 10:13:53;;;;;;;4.17;0.93;;;;;;;10.63;43.52;102364.25;5076108;28;19969;-68
2022/04/19 10:16:18;;;;;;;3.20;1.20;;;;;;;10.68;43.43;102373.56;5076220;28;20453;-69
2022/04/19 10:18:45;;;;;;;4.13;1.60;;;;;;;10.68;43.42;102370.88;5074827;28;20040;-71
2022/04/19 10:21:20;;;;;;;7.67;1.50;;;;;;;10.45;43.48;102367.44;5075326;28;20074;-70
2022/04/19 10:23:49;;;;;;;1.10;1.00;;;;;;;10.54;44.00;102373.84;5074606;28;20059;-75
2022/04/19 10:26:20;;;;;;;3.93;1.20;;;;;;;10.68;43.19;102381.53;5076316;28;20082;-71
2022/04/19 10:28:51;;;;;;;6.23;1.53;;;;;;;10.73;43.16;102379.38;5075082;28;20040;-70
2022/04/19 10:31:31;;;;;;;3.23;1.27;;;;;;;10.71;43.52;102370.66;5074823;28;20036;-67
2022/04/19 10:34:05;;;;;;;1.27;1.13;;;;;;;10.72;43.56;102350.19;5073879;28;20032;-66
2022/04/19 10:36:40;;;;;;;3.10;1.50;;;;;;;10.69;43.53;102356.59;5074261;28;20036;-66
2022/04/19 10:39:15;;;;;;;2.80;1.23;;;;;;;10.88;43.54;102373.75;5073847;28;20072;-69
2022/04/19 10:42:03;;;;;;;2.13;1.33;;;;;;;10.82;43.78;102367.13;5073833;28;20032;-66
2022/04/19 10:44:36;;;;;;;6.00;0.97;;;;;;;10.82;43.75;102364.44;5073380;28;20048;-67
2022/04/19 10:47:20;;;;;;;20.83;1.97;;;;;;;10.78;43.41;102355.88;5071936;28;20039;-72
2022/04/19 10:50:06;;;;;;;1.90;1.10;;;;;;;10.78;43.97;102363.88;5071997;28;20032;-67
2022/04/19 10:52:38;;;;;;;3.13;1.43;;;;;;;10.86;43.72;102358.75;5073565;28;20054;-67
2022/04/19 10:55:16;;;;;;;8.50;2.30;;;;;;;10.88;43.97;102360.44;5072530;28;20028;-67
2022/04/19 11:00:41;;;;;;;1.87;1.17;;;;;;;10.85;43.81;102354.38;5066353;28;19916;-66
2022/04/19 11:03:18;;;;;;;2.50;1.10;;;;;;;10.82;43.72;102354.63;5072679;28;20078;-70
2022/04/19 11:05:55;;;;;;;3.40;1.03;;;;;;;10.74;43.90;102348.25;5071699;28;20039;-72
2022/04/19 11:08:29;;;;;;;3.40;0.90;;;;;;;10.79;43.36;102351.38;5071012;28;20072;-70
2022/04/19 11:10:55;;;;;;;1.70;1.07;;;;;;;10.75;43.78;102345.47;5071573;28;20086;-68
2022/04/19 11:13:26;;;;;;;5.60;1.37;;;;;;;10.89;44.18;102346.13;5067494;28;20078;-69
2022/04/19 11:16:05;;;;;;;14.07;1.50;;;;;;;11.08;43.66;102341.84;5070825;28;20071;-64
2022/04/19 11:18:31;;;;;;;4.57;1.13;;;;;;;11.16;43.14;102355.38;5052534;28;20045;-67
2022/04/19 11:21:08;;;;;;;2.57;1.93;;;;;;;11.16;43.71;102326.03;5072809;28;20059;-66
2022/04/19 11:23:48;;;;;;;4.33;1.20;;;;;;;11.16;43.10;102354.53;5072524;28;20063;-64
2022/04/19 11:26:34;;;;;;;1.57;0.90;;;;;;;11.10;43.16;102333.72;5070851;28;20064;-63
2022/04/19 11:29:09;;;;;;;2.87;1.27;;;;;;;11.02;43.55;102331.69;5071465;28;20361;-67
2022/04/19 11:31:55;;;;;;;2.97;1.10;;;;;;;11.05;43.50;102330.59;5070265;28;20128;-66
2022/04/19 11:34:26;;;;;;;4.87;1.20;;;;;;;11.00;43.37;102322.13;5055512;28;20067;-66
2022/04/19 11:36:57;;;;;;;2.87;0.70;;;;;;;10.97;43.44;102301.88;5074234;28;20036;-66
2022/04/19 11:48:02;;;;;;;9.63;2.47;;;;;;;11.10;43.45;102323.03;5068338;28;20033;-63
2022/04/19 11:50:31;;;;;;;15.50;2.40;;;;;;;10.95;42.89;102303.81;5071275;28;20063;-64
2022/04/19 11:53:15;;;;;;;1.20;0.90;;;;;;;10.98;43.51;102318.72;5073024;28;20372;-66
2022/04/19 11:55:52;;;;;;;3.07;1.20;;;;;;;11.02;43.40;102293.50;5069443;28;20517;-74
2022/04/19 11:58:22;;;;;;;13.13;1.70;;;;;;;10.88;43.42;102285.81;5070129;28;20127;-65
2022/04/19 12:01:09;;;;;;;5.07;1.27;;;;;;;11.02;42.79;102310.34;5069913;28;20029;-66
2022/04/19 12:03:39;;;;;;;4.83;1.37;;;;;;;10.86;43.04;102262.78;5067970;28;20036;-66
2022/04/19 12:06:08;;;;;;;4.47;1.53;;;;;;;11.16;42.87;102325.19;5071355;28;20510;-62
2022/04/19 12:08:37;;;;;;;5.57;1.83;;;;;;;10.96;43.24;102315.31;5071982;28;20075;-64
2022/04/19 12:11:26;;;;;;;5.20;1.70;;;;;;;11.04;43.18;102312.91;5049198;28;20064;-68